KNIP/NIP METAR and TAF weather

Enter ICAO airport designator
Station Type Date Time Source
KNIP METAR 2019/02/18 03:53 UTC NOAA

KNIP 180353Z VRB04KT 10SM BKN065 21/18 A2999 RMK AO2 SLP152 T02110183


Station Type Date Time Source
KNIP Decoded METAR 2019/02/18 03:53 UTC NOAA

JACKSONVILLE NAVAL AIR STN, FL, United States (KNIP) 30-14N 81-40W 8M
Feb 17, 2019 - 10:53 PM EST / 2019.02.18 0353 UTC
Wind: Variable at 5 MPH (4 KT):0
Visibility: 10 mile(s):0
Sky conditions: mostly cloudy
Temperature: 70.0 F (21.1 C)
Dew Point: 64.9 F (18.3 C)
Relative Humidity: 84%
Pressure (altimeter): 29.99 in. Hg (1015 hPa)
ob: KNIP 180353Z VRB04KT 10SM BKN065 21/18 A2999 RMK AO2 SLP152 T02110183
cycle: 4

Station Type Date Time Source
KNIP TAF 2019/02/17 23:11 UTC NOAA

TAF KNIP 1723/1823 17010KT 9999 FEW005 BKN050 BKN250 QNH2991INS
TEMPO 1803/1809 VRB05KT 6000 BR BKN003
BECMG 1818/1820 26008KT 9000 SHRA SCT003 BKN010 QNH3006INS T19/1811Z T26/1820Z FN00182


Example: see airport list